Time;durP1;ratioP1;P1;durP2;ratioP2;P2;SDS_P1;SDS_P2;PMS_P1;PMS_P2;Temp;Humidity;BMP_temperature;BMP_pressure;BME280_temperature;BME280_humidity;BME280_pressure;Samples;Min_cycle;Max_cycle;Signal;HPM_P1;HPM_P2
2024/01/26 00:01:55;;;;;;;6.37;5.97;;;8.80;99.90;;;;;;5033723;28;20220;-79
2024/01/26 00:04:22;;;;;;;9.20;8.60;;;8.80;99.90;;;;;;5044803;28;20689;-79
2024/01/26 00:06:50;;;;;;;14.77;13.97;;;8.80;99.90;;;;;;5036998;28;20204;-79
2024/01/26 00:09:17;;;;;;;8.87;8.33;;;8.80;99.90;;;;;;5046568;28;20292;-79
2024/01/26 00:11:44;;;;;;;6.67;6.17;;;8.80;99.90;;;;;;5044080;28;20206;-79
2024/01/26 00:14:11;;;;;;;6.80;6.30;;;8.80;99.90;;;;;;5040159;28;20687;-79
2024/01/26 00:16:39;;;;;;;5.27;4.87;;;8.70;99.90;;;;;;5046257;28;20203;-79
2024/01/26 00:19:06;;;;;;;9.10;8.50;;;8.70;99.90;;;;;;5041499;28;20231;-79
2024/01/26 00:21:33;;;;;;;9.60;8.90;;;8.70;99.90;;;;;;5042681;28;20200;-79
2024/01/26 00:24:01;;;;;;;10.93;10.23;;;8.70;99.90;;;;;;5047061;28;20203;-79
2024/01/26 00:26:28;;;;;;;5.70;5.20;;;8.70;99.90;;;;;;5033685;28;20633;-79
2024/01/26 00:28:55;;;;;;;6.80;6.30;;;8.70;99.90;;;;;;5045856;28;20228;-79
2024/01/26 00:31:22;;;;;;;6.60;6.10;;;8.70;99.90;;;;;;5040658;28;20192;-80
2024/01/26 00:33:49;;;;;;;7.27;6.67;;;8.70;99.90;;;;;;5052104;28;20203;-79
2024/01/26 00:36:16;;;;;;;8.07;7.47;;;8.70;99.90;;;;;;5026703;28;20304;-79
2024/01/26 00:38:43;;;;;;;8.17;7.57;;;8.70;99.90;;;;;;5043180;28;20224;-79
2024/01/26 00:41:11;;;;;;;5.80;5.30;;;8.80;99.90;;;;;;5047790;28;20245;-78
2024/01/26 00:43:37;;;;;;;5.13;4.73;;;8.80;99.90;;;;;;5040380;28;20250;-78
2024/01/26 00:46:04;;;;;;;13.93;13.13;;;8.80;99.90;;;;;;5041239;28;20192;-79
2024/01/26 00:48:31;;;;;;;10.00;9.30;;;8.80;99.90;;;;;;5041309;28;20572;-79
2024/01/26 00:50:58;;;;;;;12.40;11.60;;;8.80;99.90;;;;;;5053291;28;20629;-79
2024/01/26 00:53:25;;;;;;;4.80;4.40;;;8.80;99.90;;;;;;5043774;28;20208;-79
2024/01/26 00:55:52;;;;;;;10.47;9.67;;;8.90;99.90;;;;;;5041491;28;20247;-80
2024/01/26 00:58:20;;;;;;;5.50;5.00;;;8.90;99.90;;;;;;5045609;28;20273;-79
2024/01/26 01:00:47;;;;;;;5.87;5.30;;;8.90;99.90;;;;;;5033045;28;20694;-79
2024/01/26 01:03:14;;;;;;;10.27;9.57;;;8.90;99.90;;;;;;5037635;28;20552;-79
2024/01/26 01:05:42;;;;;;;8.00;7.50;;;8.90;99.90;;;;;;5040594;28;20265;-78
2024/01/26 01:08:09;;;;;;;6.47;5.97;;;8.90;99.90;;;;;;5046723;28;20294;-79
2024/01/26 01:10:36;;;;;;;4.47;4.17;;;8.90;99.90;;;;;;5040873;28;20223;-79
2024/01/26 01:13:04;;;;;;;5.20;4.80;;;8.90;99.90;;;;;;5039358;28;20207;-79
2024/01/26 01:15:32;;;;;;;4.50;4.13;;;8.90;99.90;;;;;;5028993;28;20239;-79
2024/01/26 01:18:00;;;;;;;4.50;4.10;;;8.80;99.90;;;;;;5039379;28;20247;-79
2024/01/26 01:20:27;;;;;;;5.10;4.70;;;8.80;99.90;;;;;;5035726;28;20541;-79
2024/01/26 01:22:57;;;;;;;7.27;6.77;;;8.80;99.90;;;;;;5044289;28;20204;-79
2024/01/26 01:25:24;;;;;;;6.20;5.70;;;8.80;99.90;;;;;;5039438;28;20200;-79
2024/01/26 01:27:52;;;;;;;12.77;12.07;;;8.80;99.90;;;;;;5034672;28;20680;-79
2024/01/26 01:30:18;;;;;;;8.97;8.40;;;8.70;99.90;;;;;;5045168;28;20203;-79
2024/01/26 01:32:47;;;;;;;5.93;5.50;;;8.70;99.90;;;;;;5042562;28;20200;-79
2024/01/26 01:35:13;;;;;;;4.13;3.83;;;8.60;99.90;;;;;;5038831;28;20333;-79
2024/01/26 01:37:40;;;;;;;6.60;6.13;;;8.60;99.90;;;;;;5045651;28;20200;-79
2024/01/26 01:40:08;;;;;;;5.93;5.53;;;8.50;99.90;;;;;;5037038;28;20286;-79
2024/01/26 01:42:35;;;;;;;5.70;5.40;;;8.40;99.90;;;;;;5038401;28;20200;-78
2024/01/26 01:45:02;;;;;;;9.83;9.23;;;8.40;99.90;;;;;;5042430;28;20655;-79
2024/01/26 01:47:29;;;;;;;7.63;7.13;;;8.40;99.90;;;;;;5036559;28;20184;-79
2024/01/26 01:49:57;;;;;;;4.60;4.30;;;8.40;99.90;;;;;;5045295;28;20195;-79
2024/01/26 01:52:26;;;;;;;6.23;5.83;;;8.30;99.90;;;;;;5049687;28;20256;-78
2024/01/26 01:54:57;;;;;;;9.30;8.70;;;8.40;99.90;;;;;;5046207;28;20196;-79
2024/01/26 01:57:25;;;;;;;7.77;7.27;;;8.40;99.90;;;;;;5043410;28;20210;-78
2024/01/26 01:59:52;;;;;;;7.03;6.57;;;8.40;99.90;;;;;;5033933;28;20648;-79
2024/01/26 02:02:23;;;;;;;4.70;4.30;;;8.40;99.90;;;;;;5031322;28;20195;-79
2024/01/26 02:04:50;;;;;;;6.60;6.20;;;8.40;99.90;;;;;;5046066;28;20227;-78
2024/01/26 02:07:18;;;;;;;7.77;7.27;;;8.40;99.90;;;;;;5033736;28;20286;-79
2024/01/26 02:09:45;;;;;;;5.43;5.13;;;8.40;99.90;;;;;;5044501;28;20216;-79
2024/01/26 02:12:12;;;;;;;6.17;5.77;;;8.40;99.90;;;;;;5034381;28;20227;-79
2024/01/26 02:14:39;;;;;;;5.47;4.97;;;8.40;99.90;;;;;;5033292;28;20241;-78
2024/01/26 02:17:05;;;;;;;7.30;6.80;;;8.40;99.90;;;;;;5041348;28;20727;-79
2024/01/26 02:19:33;;;;;;;5.43;5.03;;;8.50;99.90;;;;;;5039461;28;20224;-79
2024/01/26 02:22:00;;;;;;;4.83;4.53;;;8.50;99.90;;;;;;5046184;28;20286;-79
2024/01/26 02:24:28;;;;;;;3.60;3.40;;;8.50;99.90;;;;;;5041157;28;20250;-79
2024/01/26 02:26:55;;;;;;;5.50;5.20;;;8.50;99.90;;;;;;5039713;28;20195;-79
2024/01/26 02:29:21;;;;;;;6.00;5.60;;;8.50;99.90;;;;;;5032152;28;20693;-78
2024/01/26 02:31:48;;;;;;;6.70;6.30;;;8.50;99.90;;;;;;5040743;28;20207;-79
2024/01/26 02:34:15;;;;;;;9.80;9.20;;;8.50;99.90;;;;;;5044613;28;20231;-79
2024/01/26 02:36:42;;;;;;;3.80;3.57;;;8.50;99.90;;;;;;5041122;28;20592;-78
2024/01/26 02:39:10;;;;;;;4.87;4.57;;;8.50;99.90;;;;;;5040973;28;20223;-79
2024/01/26 02:41:38;;;;;;;5.50;5.17;;;8.50;99.90;;;;;;5039101;28;20670;-79
2024/01/26 02:44:05;;;;;;;4.37;4.07;;;8.50;99.90;;;;;;5051566;28;20782;-79
2024/01/26 02:46:32;;;;;;;6.90;6.43;;;8.50;99.90;;;;;;5025870;28;20193;-79
2024/01/26 02:48:59;;;;;;;4.70;4.43;;;8.50;99.90;;;;;;5033576;28;20222;-79
2024/01/26 02:51:25;;;;;;;4.40;4.10;;;8.50;99.90;;;;;;5039207;28;20200;-79
2024/01/26 02:53:52;;;;;;;9.10;8.60;;;8.60;99.90;;;;;;5040738;28;20282;-79
2024/01/26 02:56:19;;;;;;;7.93;7.43;;;8.50;99.90;;;;;;5048461;28;20264;-79
2024/01/26 02:58:47;;;;;;;5.30;5.00;;;8.60;99.90;;;;;;5039825;28;20215;-79
2024/01/26 03:01:14;;;;;;;12.77;12.07;;;8.60;99.90;;;;;;5048983;28;20227;-79
2024/01/26 03:03:41;;;;;;;11.60;10.93;;;8.60;99.90;;;;;;5029623;28;20737;-79
2024/01/26 03:06:11;;;;;;;15.53;14.73;;;8.60;99.90;;;;;;5040063;28;20238;-79
2024/01/26 03:08:38;;;;;;;4.27;4.07;;;8.60;99.90;;;;;;5049234;28;20207;-79
2024/01/26 03:11:05;;;;;;;3.77;3.57;;;8.60;99.90;;;;;;5046441;28;20246;-79
2024/01/26 03:13:32;;;;;;;7.97;7.40;;;8.60;99.90;;;;;;5040983;28;20196;-79
2024/01/26 03:16:00;;;;;;;11.33;10.63;;;8.60;99.90;;;;;;5040156;28;20216;-79
2024/01/26 03:18:27;;;;;;;3.67;3.47;;;8.70;99.90;;;;;;5050418;28;20637;-78
2024/01/26 03:20:53;;;;;;;5.43;5.13;;;8.70;99.90;;;;;;5046995;28;20266;-78
2024/01/26 03:23:20;;;;;;;11.00;10.40;;;8.60;99.90;;;;;;5046389;28;20815;-79
2024/01/26 03:25:47;;;;;;;6.73;6.33;;;8.70;99.90;;;;;;5047336;28;20191;-79
2024/01/26 03:28:14;;;;;;;6.10;5.70;;;8.70;99.90;;;;;;5045834;28;20728;-79
2024/01/26 03:30:43;;;;;;;15.17;14.20;;;8.60;99.90;;;;;;5043919;28;20616;-78
2024/01/26 03:33:11;;;;;;;4.03;3.73;;;8.60;99.90;;;;;;5030381;28;20713;-79
2024/01/26 03:35:38;;;;;;;6.30;5.90;;;8.70;99.90;;;;;;5044584;28;20222;-79
2024/01/26 03:38:05;;;;;;;4.37;4.13;;;8.70;99.90;;;;;;5035937;28;20249;-79
2024/01/26 03:40:31;;;;;;;7.93;7.43;;;8.70;99.90;;;;;;5047855;28;20199;-79
2024/01/26 03:42:58;;;;;;;4.40;4.10;;;8.70;99.90;;;;;;5032727;28;20204;-78
2024/01/26 03:45:25;;;;;;;12.47;11.73;;;8.70;99.90;;;;;;5042834;28;20218;-78
2024/01/26 03:47:52;;;;;;;9.00;8.43;;;8.70;99.90;;;;;;5039224;28;20225;-78
2024/01/26 03:50:20;;;;;;;4.00;3.70;;;8.70;99.90;;;;;;5053788;28;20221;-79
2024/01/26 03:52:47;;;;;;;11.40;10.80;;;8.80;99.90;;;;;;5040582;28;20585;-77
2024/01/26 03:55:14;;;;;;;14.37;13.40;;;8.80;99.90;;;;;;5046925;28;20229;-80
2024/01/26 03:57:40;;;;;;;4.93;4.73;;;8.80;99.90;;;;;;5044663;28;20635;-79
2024/01/26 04:00:10;;;;;;;5.80;5.50;;;8.70;99.90;;;;;;5033983;28;20195;-78
2024/01/26 04:02:40;;;;;;;13.13;12.43;;;8.80;99.90;;;;;;5038359;28;20302;-79
2024/01/26 04:05:08;;;;;;;6.00;5.70;;;8.70;99.90;;;;;;5038027;28;20227;-79
2024/01/26 04:07:37;;;;;;;5.20;4.90;;;8.80;99.90;;;;;;5038273;28;20192;-79
2024/01/26 04:10:04;;;;;;;5.33;5.10;;;8.80;99.90;;;;;;5032761;28;20207;-78
2024/01/26 04:12:31;;;;;;;6.23;5.93;;;8.80;99.90;;;;;;5037591;28;20203;-79
2024/01/26 04:14:57;;;;;;;4.23;4.03;;;8.80;99.90;;;;;;5038107;28;20234;-81
2024/01/26 04:17:24;;;;;;;5.67;5.37;;;8.80;99.90;;;;;;5037308;28;20599;-80
2024/01/26 04:19:51;;;;;;;2.87;2.77;;;8.80;99.90;;;;;;5035599;28;20226;-80
2024/01/26 04:22:18;;;;;;;6.37;6.07;;;8.80;99.90;;;;;;5048838;28;20281;-80
2024/01/26 04:24:46;;;;;;;8.93;8.43;;;8.80;99.90;;;;;;5045242;28;20202;-78
2024/01/26 04:27:13;;;;;;;4.17;3.93;;;8.70;99.90;;;;;;5042850;28;20192;-80
2024/01/26 04:29:39;;;;;;;3.50;3.20;;;8.70;99.90;;;;;;5044886;28;20705;-81
2024/01/26 04:32:07;;;;;;;3.57;3.37;;;8.70;99.90;;;;;;5043918;28;20204;-80
2024/01/26 04:34:37;;;;;;;3.23;3.03;;;8.70;99.90;;;;;;5039381;28;20247;-80
2024/01/26 04:37:05;;;;;;;9.63;9.00;;;8.60;99.90;;;;;;5036216;28;20220;-81
2024/01/26 04:39:32;;;;;;;13.17;12.47;;;8.60;99.90;;;;;;5039597;28;20590;-81
2024/01/26 04:42:00;;;;;;;7.30;6.80;;;8.60;99.90;;;;;;5043572;28;20647;-81
2024/01/26 04:44:27;;;;;;;3.73;3.53;;;8.60;99.90;;;;;;5048161;28;20196;-81
2024/01/26 04:46:55;;;;;;;3.80;3.60;;;8.50;99.90;;;;;;5033605;28;20226;-81
2024/01/26 04:49:22;;;;;;;4.80;4.50;;;8.50;99.90;;;;;;5039529;28;20253;-81
2024/01/26 04:51:49;;;;;;;5.17;4.87;;;8.50;99.90;;;;;;5040565;28;20199;-81
2024/01/26 04:54:16;;;;;;;4.70;4.40;;;8.50;99.90;;;;;;5039354;28;20204;-79
2024/01/26 04:56:43;;;;;;;5.67;5.30;;;8.50;99.90;;;;;;5039734;28;20211;-79
2024/01/26 04:59:12;;;;;;;4.93;4.63;;;8.50;99.90;;;;;;5038785;28;20771;-79
2024/01/26 05:01:38;;;;;;;3.60;3.40;;;8.50;99.90;;;;;;5041701;28;20196;-79
2024/01/26 05:04:06;;;;;;;7.37;6.97;;;8.50;99.90;;;;;;5043883;28;20650;-80
2024/01/26 05:06:32;;;;;;;7.57;6.97;;;8.40;99.90;;;;;;5033325;28;20219;-79
2024/01/26 05:08:59;;;;;;;11.60;10.90;;;8.40;99.90;;;;;;5048534;28;20227;-79
2024/01/26 05:11:26;;;;;;;8.70;8.07;;;8.40;99.90;;;;;;5034907;28;20238;-80
2024/01/26 05:13:53;;;;;;;4.57;4.33;;;8.40;99.90;;;;;;5049260;28;20196;-79
2024/01/26 05:16:21;;;;;;;3.33;3.20;;;8.40;99.90;;;;;;5033468;28;20208;-80
2024/01/26 05:18:48;;;;;;;4.33;4.10;;;8.40;99.90;;;;;;5032686;28;20721;-80
2024/01/26 05:21:14;;;;;;;5.60;5.30;;;8.40;99.90;;;;;;5037849;28;20617;-80
2024/01/26 05:23:42;;;;;;;5.60;5.30;;;8.40;99.90;;;;;;5039094;28;20234;-80
2024/01/26 05:26:09;;;;;;;3.80;3.60;;;8.50;99.90;;;;;;5034030;28;20671;-79
2024/01/26 05:28:36;;;;;;;3.80;3.60;;;8.50;99.90;;;;;;5048264;28;20226;-79
2024/01/26 05:31:04;;;;;;;4.90;4.60;;;8.50;99.90;;;;;;5042901;28;20285;-79
2024/01/26 05:33:32;;;;;;;5.80;5.50;;;8.50;99.90;;;;;;5047556;28;20220;-79
2024/01/26 05:35:59;;;;;;;6.70;6.30;;;8.50;99.90;;;;;;5042195;28;20203;-79
2024/01/26 05:38:26;;;;;;;8.27;7.67;;;8.50;99.90;;;;;;5051136;28;20255;-80
2024/01/26 05:40:53;;;;;;;8.47;7.90;;;8.60;99.90;;;;;;5040677;28;20195;-79
2024/01/26 05:43:20;;;;;;;8.37;7.97;;;8.60;99.90;;;;;;5033839;28;20245;-79
2024/01/26 05:45:47;;;;;;;9.00;8.40;;;8.60;99.90;;;;;;5038980;28;20199;-79
2024/01/26 05:48:13;;;;;;;4.90;4.60;;;8.70;99.90;;;;;;5035926;28;20212;-80
2024/01/26 05:50:42;;;;;;;5.00;4.70;;;8.70;99.90;;;;;;5042382;28;20241;-80
2024/01/26 05:53:08;;;;;;;5.40;4.50;;;8.70;99.90;;;;;;5041546;28;20211;-80
2024/01/26 05:55:35;;;;;;;4.27;4.07;;;8.70;99.90;;;;;;5034653;28;20196;-80
2024/01/26 05:58:02;;;;;;;5.10;4.80;;;8.70;99.90;;;;;;5033728;28;20297;-79
2024/01/26 06:00:29;;;;;;;4.50;4.30;;;8.60;99.90;;;;;;5035850;28;20650;-79
2024/01/26 06:02:56;;;;;;;4.63;4.33;;;8.70;99.90;;;;;;5034022;28;20203;-79
2024/01/26 06:05:22;;;;;;;3.90;3.70;;;8.70;99.90;;;;;;5035176;28;20203;-79
2024/01/26 06:07:51;;;;;;;4.27;4.07;;;8.70;99.90;;;;;;5033344;28;20246;-79
2024/01/26 06:10:17;;;;;;;4.00;3.80;;;8.70;99.90;;;;;;5037958;28;20279;-79
2024/01/26 06:12:44;;;;;;;3.97;3.77;;;8.60;99.90;;;;;;5045975;28;20556;-78
2024/01/26 06:15:11;;;;;;;4.80;4.50;;;8.50;99.90;;;;;;5035164;28;20689;-79
2024/01/26 06:17:38;;;;;;;3.93;3.73;;;8.50;99.90;;;;;;5039479;28;20626;-79
2024/01/26 06:20:06;;;;;;;4.40;4.20;;;8.50;99.90;;;;;;5039077;28;20291;-79
2024/01/26 06:22:33;;;;;;;4.10;3.90;;;8.50;99.90;;;;;;5032518;28;20196;-79
2024/01/26 06:25:01;;;;;;;3.90;3.67;;;8.50;99.90;;;;;;5033790;28;20212;-79
2024/01/26 06:27:28;;;;;;;5.20;4.90;;;8.40;99.90;;;;;;5036877;28;20222;-79
2024/01/26 06:29:55;;;;;;;6.20;5.90;;;8.40;99.90;;;;;;5042697;28;20212;-79
2024/01/26 06:32:22;;;;;;;4.10;3.80;;;8.40;99.90;;;;;;5031480;28;20341;-79
2024/01/26 06:34:48;;;;;;;4.40;4.00;;;8.40;99.90;;;;;;5034687;28;20207;-82
2024/01/26 06:37:15;;;;;;;13.80;13.10;;;8.50;99.90;;;;;;5038839;28;20289;-82
2024/01/26 06:39:42;;;;;;;10.23;9.70;;;8.50;99.90;;;;;;5034951;28;20222;-82
2024/01/26 06:42:10;;;;;;;7.70;7.20;;;8.50;99.90;;;;;;5046321;28;20731;-81
2024/01/26 06:44:37;;;;;;;6.50;6.10;;;8.50;99.90;;;;;;5047312;28;20206;-81
2024/01/26 06:47:04;;;;;;;5.10;4.63;;;8.60;99.90;;;;;;5050941;28;20203;-81
2024/01/26 06:49:31;;;;;;;11.33;10.63;;;8.60;99.90;;;;;;5033187;28;20274;-80
2024/01/26 06:51:58;;;;;;;6.23;5.93;;;8.60;99.90;;;;;;5044572;28;20226;-80
2024/01/26 06:54:24;;;;;;;6.30;5.93;;;8.70;99.90;;;;;;5046734;28;20253;-80
2024/01/26 06:56:51;;;;;;;4.10;3.80;;;8.70;99.90;;;;;;5046828;28;20281;-80
2024/01/26 06:59:19;;;;;;;4.10;3.80;;;8.70;99.90;;;;;;5042824;28;20242;-79
2024/01/26 07:01:46;;;;;;;3.80;3.60;;;8.70;99.90;;;;;;5031294;28;20203;-79
2024/01/26 07:04:13;;;;;;;4.20;3.90;;;8.70;99.90;;;;;;5038326;28;20204;-80
2024/01/26 07:06:39;;;;;;;5.60;5.30;;;8.70;99.90;;;;;;5032757;28;20196;-80
2024/01/26 07:09:08;;;;;;;8.27;7.87;;;8.80;99.90;;;;;;5044750;28;20281;-80
2024/01/26 07:11:37;;;;;;;4.70;4.40;;;8.80;99.90;;;;;;5031536;28;20294;-79
2024/01/26 07:14:04;;;;;;;12.77;11.97;;;8.80;99.90;;;;;;5041212;28;20203;-78
2024/01/26 07:16:32;;;;;;;13.27;12.57;;;8.80;99.90;;;;;;5041923;28;20312;-79
2024/01/26 07:18:59;;;;;;;14.37;13.47;;;8.90;99.90;;;;;;5046205;28;20579;-79
2024/01/26 07:21:27;;;;;;;14.10;13.40;;;8.90;99.90;;;;;;5044043;28;20198;-79
2024/01/26 07:23:53;;;;;;;13.57;12.87;;;8.90;99.90;;;;;;5040607;28;20200;-80
2024/01/26 07:26:21;;;;;;;13.70;13.00;;;9.00;99.90;;;;;;5037020;28;20203;-80
2024/01/26 07:28:48;;;;;;;14.10;13.40;;;9.00;99.90;;;;;;5036321;28;20207;-79
2024/01/26 07:31:15;;;;;;;13.50;12.80;;;9.00;99.90;;;;;;5045373;28;20210;-80
2024/01/26 07:33:43;;;;;;;13.20;12.50;;;9.10;99.90;;;;;;5038608;28;20667;-80
2024/01/26 07:36:10;;;;;;;13.63;12.93;;;9.10;99.90;;;;;;5045289;28;20261;-79
2024/01/26 07:38:37;;;;;;;13.10;12.40;;;9.20;99.90;;;;;;5042678;28;20227;-79
2024/01/26 07:41:04;;;;;;;12.90;12.20;;;9.20;99.90;;;;;;5039306;28;20234;-79
2024/01/26 07:43:31;;;;;;;12.60;11.90;;;9.20;99.90;;;;;;5030900;28;20615;-80
2024/01/26 07:45:58;;;;;;;12.10;11.50;;;9.30;99.90;;;;;;5044772;28;20199;-82
2024/01/26 07:48:24;;;;;;;12.10;11.50;;;9.30;99.90;;;;;;5035237;28;20700;-81
2024/01/26 07:50:52;;;;;;;12.50;11.80;;;9.30;99.90;;;;;;5045550;28;20257;-82
2024/01/26 07:53:19;;;;;;;12.40;11.80;;;9.40;99.90;;;;;;5037877;28;20235;-81
2024/01/26 07:55:46;;;;;;;12.77;12.07;;;9.40;99.90;;;;;;5036206;28;20246;-81
2024/01/26 07:58:13;;;;;;;12.00;11.40;;;9.40;99.90;;;;;;5047744;28;20220;-81
2024/01/26 08:00:40;;;;;;;12.57;11.87;;;9.50;99.90;;;;;;5035729;28;20187;-81
2024/01/26 08:03:06;;;;;;;13.23;12.33;;;9.50;99.90;;;;;;5050877;28;20222;-79
2024/01/26 08:05:33;;;;;;;13.03;12.33;;;9.60;99.90;;;;;;5037992;28;20251;-80
2024/01/26 08:08:01;;;;;;;13.20;12.50;;;9.70;99.90;;;;;;5038238;28;20220;-81
2024/01/26 08:10:28;;;;;;;13.53;12.83;;;9.80;99.90;;;;;;5042469;28;20193;-81
2024/01/26 08:12:55;;;;;;;12.63;11.93;;;9.90;99.90;;;;;;5048313;28;20211;-80
2024/01/26 08:15:22;;;;;;;14.23;13.33;;;10.00;99.90;;;;;;5049600;28;20197;-83
2024/01/26 08:17:48;;;;;;;3.30;3.10;;;10.00;99.90;;;;;;5038535;28;20220;-83
2024/01/26 08:20:15;;;;;;;3.33;3.13;;;10.10;99.90;;;;;;5045892;28;20200;-83
2024/01/26 08:22:43;;;;;;;3.23;3.03;;;10.20;99.90;;;;;;5040315;28;20208;-82
2024/01/26 08:25:11;;;;;;;9.80;9.30;;;10.20;99.90;;;;;;5044153;28;20217;-83
2024/01/26 08:27:38;;;;;;;14.57;13.77;;;10.30;99.90;;;;;;5039376;28;20194;-82
2024/01/26 08:30:06;;;;;;;12.73;11.93;;;10.40;99.90;;;;;;5038173;28;20193;-83
2024/01/26 08:32:34;;;;;;;15.70;14.73;;;10.50;99.90;;;;;;5037004;28;20204;-82
2024/01/26 08:35:00;;;;;;;14.23;13.43;;;10.60;99.90;;;;;;5049447;28;20211;-83
2024/01/26 08:37:28;;;;;;;14.47;13.67;;;10.70;99.90;;;;;;5037250;28;20761;-79
2024/01/26 08:39:56;;;;;;;10.73;10.13;;;10.70;99.90;;;;;;5039872;28;20223;-79
2024/01/26 08:42:24;;;;;;;15.60;14.80;;;10.80;99.90;;;;;;5048714;28;20202;-79
2024/01/26 08:44:50;;;;;;;12.43;11.73;;;10.90;99.90;;;;;;5041944;28;20210;-80
2024/01/26 08:47:17;;;;;;;6.77;6.37;;;10.90;99.90;;;;;;5047126;28;20668;-80
2024/01/26 08:49:44;;;;;;;12.60;11.80;;;11.00;99.90;;;;;;5036596;28;20643;-80
2024/01/26 08:52:11;;;;;;;11.87;11.27;;;11.00;99.90;;;;;;5047251;28;20718;-81
2024/01/26 08:54:37;;;;;;;12.57;11.97;;;11.00;99.90;;;;;;5041634;28;20207;-79
2024/01/26 08:57:05;;;;;;;11.93;11.23;;;11.10;99.90;;;;;;5046991;28;20202;-80
2024/01/26 08:59:33;;;;;;;5.97;5.57;;;11.10;99.90;;;;;;5036948;28;20226;-80
2024/01/26 09:02:01;;;;;;;6.00;5.50;;;11.20;99.90;;;;;;5046987;28;20245;-80
2024/01/26 09:04:27;;;;;;;12.27;11.57;;;11.40;99.90;;;;;;5047380;28;20226;-81
2024/01/26 09:06:54;;;;;;;13.40;12.57;;;11.40;99.90;;;;;;5033068;28;20204;-80
2024/01/26 09:09:22;;;;;;;13.40;12.57;;;11.50;99.90;;;;;;5042283;28;20221;-79
2024/01/26 09:11:49;;;;;;;12.47;11.77;;;11.50;99.90;;;;;;5043890;28;20241;-79
2024/01/26 09:14:16;;;;;;;12.10;11.50;;;11.60;99.90;;;;;;5042370;28;20194;-79
2024/01/26 09:16:50;;;;;;;12.47;11.77;;;11.70;99.90;;;;;;5037673;28;20207;-79
2024/01/26 09:19:17;;;;;;;12.10;11.50;;;11.70;99.90;;;;;;5035382;28;20224;-79
2024/01/26 09:21:44;;;;;;;9.97;9.37;;;11.80;99.90;;;;;;5037022;28;20202;-79
2024/01/26 09:24:11;;;;;;;3.80;3.60;;;11.80;99.90;;;;;;5045595;28;20636;-79
2024/01/26 09:26:39;;;;;;;12.37;11.57;;;11.80;99.90;;;;;;5043451;28;20202;-79
2024/01/26 09:29:06;;;;;;;13.77;12.87;;;11.70;99.90;;;;;;5032810;28;20694;-79
2024/01/26 09:31:33;;;;;;;6.40;6.00;;;11.70;99.90;;;;;;5040456;28;20207;-79
2024/01/26 09:34:01;;;;;;;3.37;3.17;;;11.70;99.90;;;;;;5024421;28;20212;-79
2024/01/26 09:36:28;;;;;;;2.97;2.83;;;11.70;99.90;;;;;;5046950;28;20213;-82
2024/01/26 09:38:57;;;;;;;3.33;3.10;;;11.80;99.90;;;;;;5034282;28;20270;-78
2024/01/26 09:41:24;;;;;;;5.27;4.87;;;11.70;99.90;;;;;;5043592;28;20272;-80
2024/01/26 09:43:51;;;;;;;12.83;12.13;;;11.70;99.90;;;;;;5046936;28;20557;-80
2024/01/26 09:46:19;;;;;;;13.60;12.90;;;11.60;99.90;;;;;;5030235;28;20837;-79
2024/01/26 09:48:49;;;;;;;13.73;13.03;;;11.60;99.90;;;;;;5043436;28;20215;-80
2024/01/26 09:51:17;;;;;;;9.27;8.77;;;11.60;99.90;;;;;;5045533;28;20204;-81
2024/01/26 09:53:44;;;;;;;10.27;9.67;;;11.70;99.90;;;;;;5035963;28;20203;-81
2024/01/26 09:56:11;;;;;;;6.43;6.03;;;11.70;99.90;;;;;;5037011;28;20205;-82
2024/01/26 09:58:38;;;;;;;8.07;7.57;;;11.70;99.90;;;;;;5033665;28;20284;-80
2024/01/26 10:01:08;;;;;;;10.97;10.37;;;11.70;99.90;;;;;;5046631;28;20204;-80
2024/01/26 10:03:36;;;;;;;10.73;10.13;;;11.70;99.90;;;;;;5045520;28;20602;-80
2024/01/26 10:06:04;;;;;;;10.10;9.50;;;11.60;99.90;;;;;;5044856;28;20222;-79
2024/01/26 10:08:39;;;;;;;5.30;4.90;;;11.70;99.90;;;;;;5036041;28;20285;-78
2024/01/26 10:11:06;;;;;;;3.50;3.30;;;11.70;99.90;;;;;;5044007;28;20540;-80
2024/01/26 10:13:33;;;;;;;9.03;8.53;;;11.80;99.90;;;;;;5046284;28;20200;-80
2024/01/26 10:16:05;;;;;;;18.30;11.03;;;11.80;99.90;;;;;;5034562;28;20207;-76
2024/01/26 10:18:39;;;;;;;10.53;9.47;;;11.80;99.90;;;;;;5032230;28;20374;-78
2024/01/26 10:21:05;;;;;;;5.90;3.20;;;11.90;99.90;;;;;;5051782;28;20670;-80
2024/01/26 10:23:32;;;;;;;3.53;3.23;;;12.00;99.90;;;;;;5044266;28;20636;-80
2024/01/26 10:26:00;;;;;;;9.00;8.47;;;12.00;99.90;;;;;;5029982;28;20204;-80
2024/01/26 10:28:27;;;;;;;8.97;8.27;;;11.90;99.90;;;;;;5030954;28;20218;-80
2024/01/26 10:30:54;;;;;;;3.70;3.40;;;12.00;99.90;;;;;;5038353;28;20613;-80
2024/01/26 10:33:23;;;;;;;6.50;6.10;;;12.00;99.90;;;;;;5043386;28;20192;-80
2024/01/26 10:35:52;;;;;;;3.50;3.30;;;12.00;99.90;;;;;;5035770;28;20210;-80
2024/01/26 10:38:19;;;;;;;4.80;4.00;;;12.00;99.90;;;;;;5034635;28;20250;-81
2024/01/26 10:40:46;;;;;;;3.43;3.23;;;12.00;99.90;;;;;;5034761;28;20252;-79
2024/01/26 10:43:18;;;;;;;8.57;7.97;;;12.10;99.90;;;;;;5028471;28;20535;-79
2024/01/26 10:45:45;;;;;;;7.53;7.03;;;12.10;99.90;;;;;;5038814;28;20670;-81
2024/01/26 10:48:14;;;;;;;3.37;3.07;;;12.00;99.90;;;;;;5036843;28;20218;-80
2024/01/26 10:50:41;;;;;;;3.60;3.30;;;12.00;99.90;;;;;;5043502;28;20204;-78
2024/01/26 10:53:08;;;;;;;3.23;3.03;;;12.00;99.90;;;;;;5037802;28;20223;-81
2024/01/26 10:55:36;;;;;;;3.40;3.20;;;12.00;99.90;;;;;;5040620;28;20204;-81
2024/01/26 10:58:04;;;;;;;3.10;2.90;;;12.10;99.90;;;;;;5031618;28;20231;-83
2024/01/26 11:00:34;;;;;;;3.37;3.07;;;12.00;99.90;;;;;;5033396;28;20740;-83
2024/01/26 11:03:02;;;;;;;3.47;3.17;;;12.00;99.90;;;;;;5041349;28;20307;-76
2024/01/26 11:05:29;;;;;;;3.00;2.80;;;12.00;99.90;;;;;;5037460;28;20200;-79
2024/01/26 11:07:56;;;;;;;6.47;6.07;;;12.00;99.90;;;;;;5034418;28;20282;-79
2024/01/26 11:10:27;;;;;;;10.73;9.83;;;12.00;99.90;;;;;;5034912;28;20196;-78
2024/01/26 11:13:02;;;;;;;6.03;5.50;;;12.20;99.90;;;;;;5037173;28;20235;-78
2024/01/26 11:15:29;;;;;;;10.27;9.60;;;12.40;99.90;;;;;;5051146;28;20226;-80
2024/01/26 11:17:58;;;;;;;8.80;8.30;;;12.30;99.90;;;;;;5041710;28;20228;-81
2024/01/26 11:20:29;;;;;;;3.87;3.57;;;12.20;99.90;;;;;;5044582;28;20206;-81
2024/01/26 11:23:00;;;;;;;9.47;8.97;;;12.20;99.90;;;;;;5042050;28;20209;-81
2024/01/26 11:25:33;;;;;;;9.40;8.90;;;12.20;99.90;;;;;;5037467;28;20200;-81
2024/01/26 11:28:00;;;;;;;4.50;4.20;;;12.20;99.90;;;;;;5047290;28;20235;-80
2024/01/26 11:30:28;;;;;;;9.57;8.97;;;12.20;99.90;;;;;;5042272;28;20215;-81
2024/01/26 11:32:54;;;;;;;3.50;3.30;;;12.20;99.90;;;;;;5034554;28;20207;-81
2024/01/26 11:35:23;;;;;;;3.80;3.50;;;12.10;99.90;;;;;;5042424;28;20230;-79
2024/01/26 11:37:52;;;;;;;7.00;6.60;;;12.10;99.90;;;;;;5047790;28;20743;-79
2024/01/26 11:40:20;;;;;;;6.90;6.40;;;12.00;99.90;;;;;;5042311;28;20200;-79
2024/01/26 11:42:47;;;;;;;5.53;5.20;;;12.00;99.90;;;;;;5051404;28;20282;-79
2024/01/26 11:45:35;;;;;;;4.90;4.60;;;11.90;99.90;;;;;;5027008;28;20197;-79
2024/01/26 11:48:07;;;;;;;7.87;7.37;;;11.90;99.90;;;;;;5040605;28;20285;-79
2024/01/26 11:50:36;;;;;;;4.77;3.87;;;11.90;99.90;;;;;;5039770;28;20663;-79
2024/01/26 11:53:03;;;;;;;4.77;4.47;;;11.90;99.90;;;;;;5050022;28;20196;-79
2024/01/26 11:55:31;;;;;;;4.77;4.50;;;11.90;99.90;;;;;;5044540;28;20200;-79
2024/01/26 11:57:58;;;;;;;7.40;6.90;;;11.90;99.90;;;;;;5037845;28;20222;-80
2024/01/26 12:00:25;;;;;;;5.30;4.90;;;12.00;99.90;;;;;;5038502;28;20192;-79
2024/01/26 12:02:51;;;;;;;10.53;9.93;;;12.00;99.90;;;;;;5035176;28;20211;-79
2024/01/26 12:05:18;;;;;;;12.17;11.43;;;12.00;99.90;;;;;;5049022;28;20208;-79
2024/01/26 12:07:47;;;;;;;4.80;4.50;;;11.90;99.90;;;;;;5044038;28;20291;-80
2024/01/26 12:10:14;;;;;;;3.17;2.97;;;12.00;99.90;;;;;;5032474;28;20192;-79
2024/01/26 12:12:41;;;;;;;5.73;5.43;;;12.00;99.90;;;;;;5045674;28;20205;-80
2024/01/26 12:15:09;;;;;;;4.87;4.50;;;12.00;99.90;;;;;;5038884;28;20594;-80
2024/01/26 12:17:36;;;;;;;3.87;3.67;;;12.00;99.90;;;;;;5037620;28;20204;-80
2024/01/26 12:20:08;;;;;;;3.10;2.90;;;12.00;99.90;;;;;;5040138;28;20597;-80
2024/01/26 12:22:35;;;;;;;5.03;4.63;;;12.10;99.90;;;;;;5037738;28;20196;-79
2024/01/26 12:25:06;;;;;;;3.90;3.70;;;12.10;99.90;;;;;;5047851;28;20268;-81
2024/01/26 12:27:33;;;;;;;4.10;3.80;;;12.10;99.90;;;;;;5053849;28;20245;-79
2024/01/26 12:30:00;;;;;;;4.10;3.90;;;12.10;99.90;;;;;;5039005;28;20195;-80
2024/01/26 12:32:27;;;;;;;4.60;4.33;;;12.10;99.90;;;;;;5042568;28;20702;-80
2024/01/26 12:34:54;;;;;;;6.13;5.73;;;12.10;99.90;;;;;;5041350;28;20207;-80
2024/01/26 12:37:21;;;;;;;5.83;5.47;;;12.10;99.90;;;;;;5042992;28;20234;-81
2024/01/26 12:39:48;;;;;;;5.90;5.60;;;12.10;99.90;;;;;;5035342;28;20219;-80
2024/01/26 12:42:16;;;;;;;5.93;5.53;;;12.10;99.90;;;;;;5045856;28;20362;-81
2024/01/26 12:44:45;;;;;;;5.43;5.03;;;12.10;99.90;;;;;;5033535;28;20200;-79
2024/01/26 12:47:12;;;;;;;5.03;4.73;;;12.10;99.90;;;;;;5052832;28;20197;-81
2024/01/26 12:49:39;;;;;;;6.07;5.67;;;12.10;99.90;;;;;;5050944;28;20272;-81